Flight Track Log - Related Links

Times and Time Zones

All times are in EDT time to prevent confusion due to time zone crossing. See the EZY2795 flight status page for this flight to view local times or setup timezone preferences in your user account.

Time Position Orientation Groundspeed Altitude Reporting Facility
EDT Latitude Longitude Course Direction KTS MPH feet Rate Location/Type
Wed 12:41:00 AM 46.1951 8.3188 333° Northwest  Level Estimated
Wed 12:42:00 AM 46.2577 8.2728 333° Northwest  Level Estimated
Wed 12:43:00 AM 46.3203 8.2267 333° Northwest  Level Estimated
Wed 12:44:00 AM 46.3829 8.1805 333° Northwest  Level Estimated
Wed 12:45:00 AM 46.4455 8.1342 333° Northwest  Level Estimated
Wed 12:46:00 AM 46.5080 8.0878 333° Northwest  Level Estimated
Wed 12:47:00 AM 46.5705 8.0413 333° Northwest  Level Estimated
Wed 12:48:00 AM 46.6424 7.9877 333° Northwest  Level Estimated
Wed 12:49:00 AM 46.7141 7.9340 333° Northwest  Level Estimated
Wed 12:50:00 AM 46.7859 7.8801 333° Northwest  Level Estimated
Wed 12:51:00 AM 46.8576 7.8261 333° Northwest  Level Estimated
Wed 12:52:00 AM 46.9293 7.7720 333° Northwest  Level Estimated
Wed 12:53:00 AM 47.0010 7.7177 333° Northwest  Level Estimated
Wed 12:54:00 AM 47.0727 7.6632 333° Northwest  Level Estimated
Wed 12:55:00 AM 47.1443 7.6087 333° Northwest  Level Estimated
Wed 12:56:00 AM 47.2159 7.5539 333° Northwest  Level Estimated
Wed 12:57:00 AM 47.2875 7.4991 333° Northwest  Level Estimated
Wed 12:58:00 AM 47.3590 7.4440 332° Northwest  Level Estimated
Wed 12:59:00 AM 47.4305 7.3889 332° Northwest  Level Estimated
Wed 01:00:00 AM 47.5020 7.3335 332° Northwest  Level Estimated
Wed 01:01:00 AM 47.5735 7.2780 332° Northwest  Level Estimated
Wed 01:02:00 AM 47.6450 7.2224 332° Northwest  Level Estimated
Wed 01:03:00 AM 47.7164 7.1666 332° Northwest  Level Estimated
Wed 01:04:00 AM 47.7878 7.1107 332° Northwest  Level Estimated
Wed 01:05:00 AM 47.8591 7.0546 332° Northwest  Level Estimated
Wed 01:06:00 AM 47.9305 6.9984 332° Northwest  Level Estimated
Wed 01:07:00 AM 48.0018 6.9420 332° Northwest  Level Estimated
Wed 01:08:00 AM 48.0731 6.8854 332° Northwest  Level Estimated
Wed 01:09:00 AM 48.1443 6.8287 332° Northwest  Level Estimated
Wed 01:10:00 AM 48.2155 6.7718 332° Northwest  Level Estimated
Wed 01:11:00 AM 48.2867 6.7148 332° Northwest  Level Estimated
Wed 01:12:00 AM 48.3579 6.6576 332° Northwest  Level Estimated
Wed 01:13:00 AM 48.4290 6.6002 332° Northwest  Level Estimated
Wed 01:14:00 AM 48.5001 6.5427 332° Northwest  Level Estimated
Wed 01:15:00 AM 48.5712 6.4851 332° Northwest  Level Estimated
Wed 01:16:00 AM 48.6423 6.4272 332° Northwest  Level Estimated
Wed 01:17:00 AM 48.7133 6.3692 332° Northwest  Level Estimated
Wed 01:18:00 AM 48.7843 6.3111 332° Northwest  Level Estimated
Wed 01:19:00 AM 48.8553 6.2528 332° Northwest  Level Estimated
Wed 01:20:00 AM 48.9262 6.1943 332° Northwest  Level Estimated
Wed 01:21:00 AM 48.9971 6.1356 332° Northwest  Level Estimated
Wed 01:22:00 AM 49.0680 6.0768 331° Northwest  Level Estimated
Wed 01:23:00 AM 49.1388 6.0178 331° Northwest  Level Estimated
Wed 01:24:00 AM 49.2096 5.9587 331° Northwest  Level Estimated
Wed 01:25:00 AM 49.2804 5.8993 331° Northwest  Level Estimated
Wed 01:26:00 AM 49.3512 5.8398 331° Northwest  Level Estimated
Wed 01:27:00 AM 49.4219 5.7801 331° Northwest  Level Estimated
Wed 01:28:00 AM 49.4926 5.7203 331° Northwest  Level Estimated
Wed 01:29:00 AM 49.5663 5.6578 331° Northwest  Level Estimated
Wed 01:30:00 AM 49.6399 5.5950 331° Northwest  Level Estimated
Wed 01:31:00 AM 49.7135 5.5321 331° Northwest  Level Estimated
Wed 01:32:00 AM 49.7870 5.4689 331° Northwest  Level Estimated
Wed 01:33:00 AM 49.8605 5.4056 331° Northwest  Level Estimated
Wed 01:34:00 AM 49.9340 5.3421 331° Northwest  Level Estimated
Wed 01:35:00 AM 50.0074 5.2784 331° Northwest  Level Estimated
Wed 01:36:00 AM 50.0808 5.2145 331° Northwest  Level Estimated
Wed 01:37:00 AM 50.1542 5.1504 331° Northwest  Level Estimated
Wed 01:38:00 AM 50.2276 5.0861 331° Northwest  Level Estimated
Wed 01:39:00 AM 50.3008 5.0216 331° Northwest  Level Estimated
Wed 01:40:00 AM 50.3741 4.9569 331° Northwest  Level Estimated
Wed 01:41:00 AM 50.4473 4.8920 331° Northwest  Level Estimated
Wed 01:42:00 AM 50.5205 4.8270 331° Northwest  Level Estimated
Wed 01:43:00 AM 50.5937 4.7617 330° Northwest  Level Estimated
Wed 01:44:00 AM 50.6668 4.6962 330° Northwest  Level Estimated
Wed 01:45:00 AM 50.7399 4.6305 330° Northwest  Level Estimated
Wed 01:46:00 AM 50.8130 4.5646 330° Northwest  Level Estimated
Wed 01:47:00 AM 50.8860 4.4984 330° Northwest  Level Estimated
Wed 01:48:00 AM 50.9014 4.4844 330° Northwest  Level Estimated
Wed 01:49:00 AM 50.9014 4.4844 112° Southeast  Level Estimated
Wed 01:50:00 AM 50.9014 4.4844 112° Southeast  Level Estimated
Wed 01:51:00 AM 50.9014 4.4844 112° Southeast  Level Estimated
Wed 01:52:00 AM 50.9014 4.4844 112° Southeast  Level Estimated
Wed 01:53:00 AM 50.9014 4.4844 112° Southeast  Level Estimated
Wed 01:54:00 AM 50.9014 4.4844 112° Southeast  Level Estimated
Wed 01:55:00 AM 50.9014 4.4844 112° Southeast  Level Estimated
Wed 01:56:00 AM 50.9014 4.4844 112° Southeast  Level Estimated
Wed 01:57:00 AM 50.9014 4.4844 112° Southeast  Level Estimated
Wed 01:58:00 AM 50.9014 4.4844 112° Southeast  Level Estimated
Wed 01:59:00 AM 50.9014 4.4844 112° Southeast  Level Estimated

Login

Don't have an account? Register now (free) for customized features, flight alerts, and more!